Time;durP1;ratioP1;P1;durP2;ratioP2;P2;SDS_P1;SDS_P2;PMS_P1;PMS_P2;Temp;Humidity;BMP_temperature;BMP_pressure;BME280_temperature;BME280_humidity;BME280_pressure;Samples;Min_cycle;Max_cycle;Signal;HPM_P1;HPM_P2
2022/01/29 00:02:23;;;;;;;12.45;8.95;;;8.90;99.90;;;;;;6274336;22;20467;-88
2022/01/29 00:04:49;;;;;;;13.88;9.45;;;9.00;99.90;;;;;;6284271;22;20000;-89
2022/01/29 00:07:15;;;;;;;20.55;8.63;;;;;;;;;;6287248;22;20356;-88
2022/01/29 00:09:43;;;;;;;10.63;8.13;;;;;;;;;;6317261;22;19999;-88
2022/01/29 00:12:09;;;;;;;12.90;8.88;;;9.00;99.90;;;;;;6305215;22;20003;-89
2022/01/29 00:14:35;;;;;;;11.55;7.75;;;9.00;99.90;;;;;;6279824;22;20435;-88
2022/01/29 00:17:01;;;;;;;10.02;8.00;;;9.00;99.90;;;;;;6278532;22;20082;-88
2022/01/29 00:19:27;;;;;;;11.25;8.27;;;6.40;99.90;;;;;;6278095;22;20003;-90
2022/01/29 00:21:53;;;;;;;12.35;7.68;;;;;;;;;;6278366;22;20052;-89
2022/01/29 00:24:19;;;;;;;10.07;8.00;;;8.90;99.90;;;;;;6303898;22;20003;-88
2022/01/29 00:26:44;;;;;;;10.40;7.40;;;8.90;99.90;;;;;;6278492;22;20004;-88
2022/01/29 00:29:18;;;;;;;10.13;7.68;;;9.00;99.90;;;;;;6278287;22;20014;-89
2022/01/29 00:31:44;;;;;;;13.73;7.80;;;;;;;;;;6277947;22;20347;-89
2022/01/29 00:34:10;;;;;;;11.02;7.15;;;;;;;;;;6303937;22;20003;-89
2022/01/29 00:36:35;;;;;;;13.07;8.10;;;9.00;99.90;;;;;;6304509;22;20049;-90
2022/01/29 00:39:01;;;;;;;9.55;7.50;;;9.00;99.90;;;;;;6278088;22;20007;-89
2022/01/29 00:41:27;;;;;;;10.65;8.13;;;8.90;99.90;;;;;;6305494;22;20003;-88
2022/01/29 00:43:52;;;;;;;12.55;8.35;;;9.00;99.90;;;;;;6278145;22;20102;-88
2022/01/29 00:46:18;;;;;;;10.95;7.75;;;9.00;99.90;;;;;;6278032;22;19999;-88
2022/01/29 00:48:44;;;;;;;11.70;8.38;;;8.90;99.90;;;;;;6278209;22;20003;-89
2022/01/29 00:51:09;;;;;;;10.77;8.40;;;9.00;99.90;;;;;;6278131;22;19999;-89
2022/01/29 00:53:35;;;;;;;10.27;8.52;;;9.00;99.90;;;;;;6278889;22;20351;-89
2022/01/29 00:56:06;;;;;;;12.95;8.60;;;9.00;99.90;;;;;;6277756;22;20023;-89
2022/01/29 00:58:31;;;;;;;11.32;7.78;;;8.90;99.90;;;;;;6277851;22;19999;-89
2022/01/29 01:00:57;;;;;;;12.00;8.30;;;8.90;99.90;;;;;;6277569;22;20008;-88
2022/01/29 01:03:23;;;;;;;13.48;9.77;;;;;;;;;;6278067;22;20021;-89
2022/01/29 01:05:49;;;;;;;13.98;9.45;;;;;;;;;;6303562;22;20045;-89
2022/01/29 01:08:15;;;;;;;12.90;9.50;;;8.80;99.90;;;;;;6303448;22;20041;-90
2022/01/29 01:10:41;;;;;;;15.30;8.63;;;;;;;;;;6278235;22;20728;-90
2022/01/29 01:13:07;;;;;;;18.95;9.35;;;;;;;;;;6304462;22;20004;-90
2022/01/29 01:15:36;;;;;;;13.60;8.65;;;8.90;99.90;;;;;;6303731;22;20011;-89
2022/01/29 01:18:02;;;;;;;12.32;8.35;;;8.90;99.90;;;;;;6277913;22;19999;-91
2022/01/29 01:20:28;;;;;;;10.95;8.75;;;8.90;99.90;;;;;;6277558;22;20007;-89
2022/01/29 01:22:54;;;;;;;12.98;8.43;;;9.00;99.90;;;;;;6277455;22;19999;-89
2022/01/29 01:25:20;;;;;;;13.25;8.75;;;8.90;99.90;;;;;;6278015;22;20436;-90
2022/01/29 01:27:46;;;;;;;15.20;9.18;;;;;;;;;;6277885;22;20007;-90
2022/01/29 01:30:12;;;;;;;16.17;10.40;;;9.00;99.90;;;;;;6303649;22;20006;-89
2022/01/29 01:32:38;;;;;;;16.33;10.05;;;9.00;99.90;;;;;;6278634;22;20003;-89
2022/01/29 01:35:19;;;;;;;13.52;9.32;;;9.00;99.90;;;;;;6277416;22;20019;-89
2022/01/29 01:37:51;;;;;;;16.70;9.98;;;9.00;99.90;;;;;;6277675;22;20000;-90
2022/01/29 01:40:20;;;;;;;18.42;10.93;;;9.00;99.90;;;;;;6277840;22;20011;-90
2022/01/29 01:42:46;;;;;;;14.45;10.00;;;9.00;99.90;;;;;;6277674;22;20006;-90
2022/01/29 01:45:12;;;;;;;19.08;10.50;;;9.00;99.90;;;;;;6278046;22;20340;-89
2022/01/29 01:47:38;;;;;;;16.23;10.88;;;9.00;99.90;;;;;;6278417;22;19999;-90
2022/01/29 01:50:06;;;;;;;16.85;11.63;;;9.00;99.90;;;;;;6277745;22;20450;-89
2022/01/29 01:52:32;;;;;;;16.27;11.18;;;;;;;;;;6304660;22;20182;-91
2022/01/29 01:54:59;;;;;;;16.63;11.50;;;9.00;99.90;;;;;;6277641;22;20043;-89
2022/01/29 01:57:27;;;;;;;16.60;11.68;;;9.00;99.90;;;;;;6277646;22;20325;-89
2022/01/29 01:59:53;;;;;;;18.35;12.35;;;;;;;;;;6277898;22;20432;-90
2022/01/29 02:02:21;;;;;;;20.23;13.00;;;8.90;99.90;;;;;;6277220;22;20432;-90
2022/01/29 02:04:49;;;;;;;19.00;11.63;;;;;;;;;;6276927;22;20010;-90
2022/01/29 02:07:17;;;;;;;21.98;12.15;;;9.00;99.90;;;;;;6277383;22;20501;-90
2022/01/29 02:09:48;;;;;;;16.70;12.48;;;8.90;99.90;;;;;;6277620;22;20030;-91
2022/01/29 02:12:14;;;;;;;16.67;12.60;;;9.00;99.90;;;;;;6277418;22;20011;-89
2022/01/29 02:14:40;;;;;;;17.30;12.80;;;9.00;99.90;;;;;;6277987;22;20025;-91
2022/01/29 02:17:07;;;;;;;17.98;12.20;;;8.90;99.90;;;;;;6277305;22;20014;-88
2022/01/29 02:19:33;;;;;;;19.10;12.10;;;8.90;99.90;;;;;;6277328;22;20236;-90
2022/01/29 02:22:00;;;;;;;18.67;11.38;;;;;;;;;;6277386;22;20332;-90
2022/01/29 02:24:29;;;;;;;15.52;11.82;;;8.90;99.90;;;;;;6277544;22;20005;-90
2022/01/29 02:26:55;;;;;;;17.05;10.85;;;;;;;;;;6277296;22;20003;-91
2022/01/29 02:29:21;;;;;;;16.70;11.55;;;8.90;99.90;;;;;;6277112;22;20007;-89
2022/01/29 02:31:54;;;;;;;18.08;11.25;;;8.90;99.90;;;;;;6278215;22;20004;-91
2022/01/29 02:34:20;;;;;;;20.27;11.77;;;;;;;;;;6289178;22;20025;-89
2022/01/29 02:36:46;;;;;;;17.45;11.52;;;8.90;99.90;;;;;;6286460;22;20007;-90
2022/01/29 02:39:17;;;;;;;19.05;11.85;;;8.90;99.90;;;;;;6287071;22;20004;-90
2022/01/29 02:41:46;;;;;;;17.80;11.82;;;8.90;99.90;;;;;;6278617;22;20003;-89
2022/01/29 02:44:15;;;;;;;;;;;8.90;99.90;;;;;;6278979;22;20004;-90
2022/01/29 02:49:13;;;;;;;21.05;12.63;;;;;;;;;;6305528;22;20000;-89
2022/01/29 02:51:50;;;;;;;18.10;11.70;;;8.80;99.90;;;;;;6277023;22;20003;-90
2022/01/29 02:54:17;;;;;;;17.13;11.50;;;8.90;99.90;;;;;;6277238;22;19999;-89
2022/01/29 02:56:43;;;;;;;23.08;11.82;;;;;;;;;;6277759;22;20102;-91
2022/01/29 02:59:09;;;;;;;17.75;11.57;;;;;;;;;;6277558;22;20038;-90
2022/01/29 03:01:38;;;;;;;19.38;11.65;;;8.90;99.90;;;;;;6276858;22;20008;-91
2022/01/29 03:04:12;;;;;;;20.88;12.20;;;8.90;99.90;;;;;;6277063;22;20374;-89
2022/01/29 03:06:38;;;;;;;16.92;11.38;;;8.80;99.90;;;;;;6271695;22;20022;-89
2022/01/29 03:09:26;;;;;;;17.25;11.60;;;8.90;99.90;;;;;;6272137;22;20078;-91
2022/01/29 03:12:00;;;;;;;20.80;12.30;;;;;;;;;;6272180;22;20008;-90
2022/01/29 03:14:28;;;;;;;24.70;12.75;;;8.80;99.90;;;;;;6271887;22;20007;-92
2022/01/29 03:16:56;;;;;;;19.52;11.52;;;;;;;;;;6271994;22;20037;-90
2022/01/29 03:19:22;;;;;;;20.92;12.20;;;8.80;99.90;;;;;;6274066;22;19999;-90
2022/01/29 03:21:55;;;;;;;21.33;11.95;;;8.80;99.90;;;;;;6273322;22;20008;-90
2022/01/29 03:24:21;;;;;;;18.30;11.73;;;8.90;99.90;;;;;;6273890;22;20061;-90
2022/01/29 03:26:47;;;;;;;18.90;11.02;;;;;;;;;;6276276;22;20367;-90
2022/01/29 03:29:15;;;;;;;18.25;11.88;;;;;;;;;;6274667;22;20000;-91
2022/01/29 03:31:44;;;;;;;22.60;11.20;;;8.90;99.90;;;;;;6274008;22;20007;-89
2022/01/29 03:34:10;;;;;;;19.15;11.52;;;;;;;;;;6273992;22;20008;-91
2022/01/29 03:36:43;;;;;;;19.33;12.00;;;8.90;99.90;;;;;;6273562;22;20011;-90
2022/01/29 03:39:09;;;;;;;20.35;11.98;;;8.90;99.90;;;;;;6273786;22;20393;-90
2022/01/29 03:41:37;;;;;;;24.45;13.45;;;8.90;99.90;;;;;;6273493;22;20042;-89
2022/01/29 03:44:06;;;;;;;20.98;12.80;;;8.80;99.90;;;;;;6273656;22;20086;-90
2022/01/29 03:46:32;;;;;;;23.55;13.48;;;8.80;99.90;;;;;;6273572;22;20062;-90
2022/01/29 03:49:01;;;;;;;20.70;13.30;;;8.80;99.90;;;;;;6273921;22;20008;-89
2022/01/29 03:51:27;;;;;;;21.73;13.10;;;;;;;;;;6273794;22;20008;-90
2022/01/29 03:53:54;;;;;;;21.08;12.60;;;;;;;;;;6274081;22;20436;-90
2022/01/29 03:56:21;;;;;;;29.13;14.27;;;8.90;99.90;;;;;;6273242;22;20018;-89
2022/01/29 03:58:50;;;;;;;20.63;13.55;;;;;;;;;;6274490;22;20432;-90
2022/01/29 04:01:21;;;;;;;21.50;13.88;;;8.90;99.90;;;;;;6274174;22;20003;-89
2022/01/29 04:03:47;;;;;;;23.40;14.07;;;;;;;;;;6274261;22;20007;-90
2022/01/29 04:06:16;;;;;;;20.02;12.82;;;;;;;;;;6273561;22;20083;-89
2022/01/29 04:08:43;;;;;;;21.33;13.07;;;8.90;99.90;;;;;;6273539;22;20004;-90
2022/01/29 04:11:13;;;;;;;22.33;12.63;;;8.90;99.90;;;;;;6273177;22;20004;-90
2022/01/29 04:13:42;;;;;;;21.08;13.07;;;8.80;99.90;;;;;;6273615;22;20008;-89
2022/01/29 04:16:08;;;;;;;21.67;13.32;;;8.90;99.90;;;;;;6273469;22;20011;-89
2022/01/29 04:19:33;;;;;;;;;;;;;;;;;;;;;
2022/01/29 04:22:02;;;;;;;20.88;13.63;;;8.90;99.90;;;;;;6275126;22;20087;-90
2022/01/29 04:25:00;;;;;;;26.10;14.95;;;8.90;99.90;;;;;;6275657;22;20448;-90
2022/01/29 04:27:59;;;;;;;26.05;14.95;;;8.90;99.90;;;;;;6274351;22;20007;-90
2022/01/29 04:30:38;;;;;;;20.75;13.88;;;;;;;;;;6273212;22;20090;-90
2022/01/29 04:36:09;;;;;;;27.40;14.63;;;8.90;99.90;;;;;;6274967;22;20016;-92
2022/01/29 04:41:56;;;;;;;;;;;;;;;;;;;;;
2022/01/29 04:44:42;;;;;;;;;;;;;;;;;;;;;
2022/01/29 04:47:48;;;;;;;24.95;14.85;;;8.90;99.90;;;;;;6274747;22;20395;-91
2022/01/29 04:50:47;;;;;;;;;;;;;;;;;;;;;
2022/01/29 04:53:47;;;;;;;;;;;;;;;;;;;;;
2022/01/29 05:31:36;;;;;;;27.30;12.88;;;8.90;99.90;;;;;;6121885;23;20052;-91
2022/01/29 05:34:05;;;;;;;20.85;12.05;;;;;;;;;;6126368;23;20458;-91
2022/01/29 05:36:35;;;;;;;20.27;11.75;;;8.90;99.90;;;;;;6150546;23;20021;-92
2022/01/29 05:39:04;;;;;;;18.25;11.05;;;6.90;99.90;;;;;;6142322;22;20010;-92
2022/01/29 05:41:30;;;;;;;20.30;10.90;;;8.90;99.90;;;;;;6273034;22;20441;-89
2022/01/29 05:43:56;;;;;;;20.35;10.65;;;8.90;99.90;;;;;;6272231;22;20007;-89
2022/01/29 05:46:22;;;;;;;19.50;10.15;;;8.90;99.90;;;;;;6247778;22;20027;-90
2022/01/29 05:48:48;;;;;;;17.88;10.15;;;8.90;99.90;;;;;;6272359;22;20345;-89
2022/01/29 05:51:14;;;;;;;18.20;10.25;;;8.90;99.90;;;;;;6273436;22;20010;-89
2022/01/29 05:53:40;;;;;;;19.30;9.75;;;8.90;99.90;;;;;;6272074;22;20034;-90
2022/01/29 05:56:09;;;;;;;16.33;8.80;;;8.90;99.90;;;;;;6272382;22;20132;-90
2022/01/29 05:58:36;;;;;;;17.38;9.18;;;8.90;99.90;;;;;;6272516;22;20344;-90
2022/01/29 06:01:02;;;;;;;16.42;8.88;;;8.90;99.90;;;;;;6272355;22;20086;-90
2022/01/29 06:03:28;;;;;;;16.77;9.27;;;8.90;99.90;;;;;;6272074;22;20000;-92
2022/01/29 06:05:53;;;;;;;17.90;9.18;;;8.90;99.90;;;;;;6278525;22;20015;-89
2022/01/29 06:08:20;;;;;;;15.60;8.68;;;;;;;;;;6277645;22;19999;-89
2022/01/29 06:10:46;;;;;;;14.32;8.63;;;8.80;99.90;;;;;;6277586;22;20149;-90
2022/01/29 06:13:14;;;;;;;16.17;8.95;;;8.80;99.90;;;;;;6277693;22;20014;-90
2022/01/29 06:15:48;;;;;;;13.95;8.52;;;8.80;99.90;;;;;;6277262;22;20061;-89
2022/01/29 06:18:34;;;;;;;16.27;9.63;;;8.80;99.90;;;;;;6277714;22;20003;-91
2022/01/29 06:21:19;;;;;;;14.98;8.23;;;8.80;99.90;;;;;;6277539;22;20003;-89
2022/01/29 06:24:15;;;;;;;17.38;9.05;;;8.80;99.90;;;;;;6277120;22;20003;-89
2022/01/29 06:27:10;;;;;;;;;;;;;;;;;;;;;
2022/01/29 06:29:38;;;;;;;16.95;9.32;;;8.80;99.90;;;;;;6304819;22;20086;-91
2022/01/29 06:32:04;;;;;;;15.48;9.50;;;8.80;99.90;;;;;;6277859;22;20053;-90
2022/01/29 06:34:30;;;;;;;18.00;9.90;;;;;;;;;;6277806;22;20011;-94
2022/01/29 06:36:56;;;;;;;21.15;10.40;;;8.90;99.90;;;;;;6277754;22;20012;-89
2022/01/29 06:39:22;;;;;;;19.33;10.18;;;;;;;;;;6277211;22;20007;-91
2022/01/29 06:41:48;;;;;;;22.77;10.63;;;8.90;99.90;;;;;;6277097;22;20043;-91
2022/01/29 06:44:23;;;;;;;18.27;10.27;;;;;;;;;;6277006;22;19999;-90
2022/01/29 06:46:49;;;;;;;17.70;9.93;;;;;;;;;;6277890;22;19999;-90
2022/01/29 06:49:17;;;;;;;17.65;9.25;;;8.90;99.90;;;;;;6277393;22;20007;-90
2022/01/29 06:51:45;;;;;;;18.20;9.02;;;8.90;99.90;;;;;;6278361;22;20008;-91
2022/01/29 06:54:11;;;;;;;16.63;9.48;;;;;;;;;;6281934;22;20452;-93
2022/01/29 06:56:37;;;;;;;15.88;9.07;;;8.90;99.90;;;;;;6281877;22;20015;-91
2022/01/29 06:59:03;;;;;;;20.75;8.98;;;8.90;99.90;;;;;;6278568;22;20091;-93
2022/01/29 07:05:11;;;;;;;18.17;9.00;;;8.90;99.90;;;;;;6157877;23;20080;-92
2022/01/29 07:08:07;;;;;;;;;;;;;;;;;;;;;
2022/01/29 07:10:51;;;;;;;19.88;9.70;;;8.90;99.90;;;;;;6179805;23;20542;-93
2022/01/29 07:13:20;;;;;;;17.60;8.70;;;;;;;;;;6155047;23;20473;-90
2022/01/29 07:15:46;;;;;;;;;;;8.90;99.90;;;;;;6156257;23;20013;-93
2022/01/29 07:18:11;;;;;;;16.27;8.48;;;8.80;99.90;;;;;;6155259;23;19904;-90
2022/01/29 07:20:37;;;;;;;15.13;8.60;;;;;;;;;;6155067;23;20005;-91
2022/01/29 07:23:38;;;;;;;15.20;8.10;;;8.80;99.90;;;;;;6239748;22;20049;-92
2022/01/29 07:28:50;;;;;;;14.02;8.05;;;;;;;;;;6304886;22;20328;-91
2022/01/29 07:31:24;;;;;;;14.95;8.45;;;8.80;99.90;;;;;;6276307;22;20014;-92
2022/01/29 07:33:52;;;;;;;14.02;7.78;;;8.80;99.90;;;;;;6278265;22;20509;-92
2022/01/29 07:36:18;;;;;;;13.85;7.35;;;8.90;99.90;;;;;;6283679;22;20011;-90
2022/01/29 07:38:43;;;;;;;17.50;7.90;;;8.80;99.90;;;;;;6294398;22;20003;-89
2022/01/29 07:41:30;;;;;;;15.05;7.63;;;;;;;;;;6301760;22;20003;-91
2022/01/29 07:44:01;;;;;;;15.35;8.25;;;8.80;99.90;;;;;;6328595;22;20027;-91
2022/01/29 07:46:30;;;;;;;14.63;8.65;;;8.80;99.90;;;;;;6282594;22;20003;-93
2022/01/29 07:48:57;;;;;;;18.38;8.27;;;;;;;;;;6283111;22;20332;-94
2022/01/29 07:51:23;;;;;;;15.57;9.43;;;;;;;;;;6278402;22;20086;-91
2022/01/29 07:54:08;;;;;;;15.93;9.07;;;8.90;99.90;;;;;;6276320;22;19995;-88
2022/01/29 07:56:36;;;;;;;14.13;9.35;;;8.90;99.90;;;;;;6216824;23;20095;-93
2022/01/29 07:59:03;;;;;;;19.42;8.45;;;;;;;;;;6214184;23;20004;-91
2022/01/29 08:01:29;;;;;;;18.15;8.95;;;8.90;99.90;;;;;;6215602;23;20011;-91
2022/01/29 08:03:55;;;;;;;14.40;9.00;;;8.90;99.90;;;;;;6215882;23;20005;-90
2022/01/29 08:06:22;;;;;;;17.20;9.77;;;8.90;99.90;;;;;;6216085;23;20016;-90
2022/01/29 08:08:51;;;;;;;17.48;9.70;;;8.90;99.90;;;;;;6216186;23;20043;-93
2022/01/29 08:11:17;;;;;;;;;;;8.90;99.90;;;;;;6216858;23;20004;-93
2022/01/29 08:13:46;;;;;;;28.75;12.73;;;;;;;;;;6216201;23;19906;-91
2022/01/29 08:16:15;;;;;;;30.45;13.40;;;8.90;99.90;;;;;;6216404;23;20015;-90
2022/01/29 08:18:50;;;;;;;26.30;12.68;;;8.80;99.90;;;;;;6217214;23;20005;-91
2022/01/29 08:21:25;;;;;;;28.75;15.02;;;;;;;;;;6216393;23;20008;-93
2022/01/29 08:23:51;;;;;;;33.30;14.73;;;;;;;;;;6216215;23;20042;-90
2022/01/29 08:26:28;;;;;;;32.90;14.85;;;8.90;99.90;;;;;;6216293;23;20004;-91
2022/01/29 08:28:54;;;;;;;28.00;14.50;;;;;;;;;;6278303;22;20340;-91
2022/01/29 08:31:20;;;;;;;22.25;11.50;;;;;;;;;;6278179;22;19999;-92
2022/01/29 08:33:46;;;;;;;23.95;11.88;;;;;;;;;;6277476;22;20086;-92
2022/01/29 08:36:11;;;;;;;21.42;11.32;;;8.90;99.90;;;;;;6277945;22;20183;-90
2022/01/29 08:39:30;;;;;;;;;;;;;;;;;;;;;
2022/01/29 08:41:59;;;;;;;24.33;13.13;;;8.90;99.90;;;;;;6305193;22;20153;-90
2022/01/29 08:45:15;;;;;;;;;;;;;;;;;;;;;
2022/01/29 08:48:30;;;;;;;24.83;12.23;;;9.00;99.90;;;;;;6305271;22;20147;-90
2022/01/29 08:51:13;;;;;;;;;;;;;;;;;;;;;
2022/01/29 08:53:41;;;;;;;25.23;11.73;;;;;;;;;;6305259;22;20535;-92
2022/01/29 08:56:10;;;;;;;21.23;12.20;;;;;;;;;;6278128;22;20378;-92
2022/01/29 08:58:40;;;;;;;22.38;10.40;;;9.10;99.90;;;;;;6277816;22;19999;-91
2022/01/29 09:01:45;;;;;;;;;;;;;;;;;;;;;
2022/01/29 09:04:57;;;;;;;;;;;;;;;;;;;;;
2022/01/29 09:10:50;;;;;;;21.17;9.88;;;;;;;;;;6211121;23;20027;-92
2022/01/29 09:13:16;;;;;;;17.27;10.38;;;9.30;99.90;;;;;;6186435;23;20005;-91
2022/01/29 09:18:30;;;;;;;15.63;8.75;;;9.20;99.90;;;;;;6204781;23;20000;-92
2022/01/29 09:20:56;;;;;;;15.80;7.80;;;;;;;;;;6210683;22;20015;-89
2022/01/29 09:23:22;;;;;;;14.65;7.82;;;9.30;99.90;;;;;;6277630;22;20014;-91
2022/01/29 09:25:48;;;;;;;12.18;5.50;;;9.30;99.90;;;;;;6303110;22;20007;-86
2022/01/29 09:28:14;;;;;;;11.95;6.57;;;9.30;99.90;;;;;;6275868;22;20010;-86
2022/01/29 09:30:42;;;;;;;12.50;7.57;;;9.30;99.90;;;;;;6276129;22;20007;-93
2022/01/29 09:33:09;;;;;;;14.93;8.35;;;9.30;99.90;;;;;;6303545;22;19999;-87
2022/01/29 09:35:34;;;;;;;14.27;7.82;;;9.30;99.90;;;;;;6277187;22;20011;-86
2022/01/29 09:38:00;;;;;;;13.50;7.30;;;9.40;99.90;;;;;;6304012;22;20037;-93
2022/01/29 09:40:26;;;;;;;13.50;8.52;;;9.40;99.90;;;;;;6304929;22;20277;-87
2022/01/29 09:42:52;;;;;;;18.33;10.05;;;9.50;99.90;;;;;;6305391;22;20003;-94
2022/01/29 09:45:23;;;;;;;14.30;7.18;;;9.40;99.90;;;;;;6304463;22;20006;-89
2022/01/29 09:47:50;;;;;;;11.32;7.25;;;9.40;99.90;;;;;;6277648;22;20007;-90
2022/01/29 09:50:17;;;;;;;12.43;7.53;;;9.40;99.90;;;;;;6276626;22;20066;-88
2022/01/29 09:52:44;;;;;;;15.20;9.15;;;9.30;99.90;;;;;;6277178;22;20470;-86
2022/01/29 09:55:09;;;;;;;13.45;8.13;;;9.40;99.90;;;;;;6303828;22;20007;-93
2022/01/29 09:57:35;;;;;;;11.98;7.63;;;9.50;99.90;;;;;;6280911;22;19995;-88
2022/01/29 10:00:04;;;;;;;11.15;6.70;;;9.50;99.90;;;;;;6307270;22;20000;-94
2022/01/29 10:02:30;;;;;;;13.65;6.32;;;9.50;99.90;;;;;;6306249;22;20038;-87
2022/01/29 10:04:57;;;;;;;9.02;6.10;;;9.50;99.90;;;;;;6304837;22;20321;-87
2022/01/29 10:07:28;;;;;;;13.70;5.32;;;9.60;99.90;;;;;;6306100;22;19999;-88
2022/01/29 10:09:56;;;;;;;9.32;5.28;;;9.60;99.90;;;;;;6308709;22;20070;-86
2022/01/29 10:12:28;;;;;;;11.38;5.75;;;9.60;99.90;;;;;;6292791;22;20009;-86
2022/01/29 10:14:57;;;;;;;8.80;4.93;;;9.60;99.90;;;;;;6319708;22;20007;-87
2022/01/29 10:17:43;;;;;;;8.18;5.72;;;9.60;99.90;;;;;;6288136;22;20030;-92
2022/01/29 10:20:14;;;;;;;6.47;4.20;;;9.60;99.90;;;;;;6278132;22;20004;-91
2022/01/29 10:22:40;;;;;;;6.47;3.67;;;9.60;99.90;;;;;;6301405;22;20014;-87
2022/01/29 10:25:11;;;;;;;6.47;3.75;;;9.60;99.90;;;;;;6276472;22;20086;-85
2022/01/29 10:27:39;;;;;;;4.63;3.38;;;9.60;99.90;;;;;;6275968;22;20014;-86
2022/01/29 10:30:08;;;;;;;4.13;3.15;;;9.60;99.90;;;;;;6277225;22;20407;-93
2022/01/29 10:32:35;;;;;;;3.53;2.60;;;9.60;99.90;;;;;;6307697;22;20003;-91
2022/01/29 10:35:02;;;;;;;3.58;2.45;;;9.60;99.90;;;;;;6285506;22;20027;-93
2022/01/29 10:37:29;;;;;;;3.95;2.97;;;9.70;99.90;;;;;;6307400;22;19999;-85
2022/01/29 10:40:00;;;;;;;5.25;3.10;;;9.70;99.90;;;;;;6277080;22;19999;-86
2022/01/29 10:42:32;;;;;;;7.30;3.30;;;9.80;99.90;;;;;;6280513;22;20013;-87
2022/01/29 10:45:04;;;;;;;5.45;3.60;;;9.80;99.90;;;;;;6305876;22;19999;-92
2022/01/29 10:47:50;;;;;;;6.30;4.45;;;9.80;99.90;;;;;;6279938;22;20003;-85
2022/01/29 10:50:16;;;;;;;7.55;4.68;;;9.80;99.90;;;;;;6307862;22;20015;-88
2022/01/29 10:52:42;;;;;;;6.82;4.45;;;;;;;;;;6279153;22;20003;-88
2022/01/29 10:55:10;;;;;;;7.13;4.60;;;9.90;99.90;;;;;;6307523;22;20008;-87
2022/01/29 10:57:39;;;;;;;5.03;3.85;;;9.90;99.90;;;;;;6281747;22;20007;-87
2022/01/29 11:00:25;;;;;;;12.40;4.63;;;9.90;99.90;;;;;;6309364;22;19995;-94
2022/01/29 11:02:54;;;;;;;6.40;4.28;;;10.00;99.90;;;;;;6307755;22;20407;-86
2022/01/29 11:05:21;;;;;;;;;;;10.00;99.90;;;;;;6273601;22;20065;-88
2022/01/29 11:07:51;;;;;;;4.82;3.75;;;10.00;99.90;;;;;;6273300;22;19899;-87
2022/01/29 11:10:17;;;;;;;11.13;4.13;;;10.00;99.90;;;;;;6277611;22;20310;-87
2022/01/29 11:12:45;;;;;;;5.93;3.60;;;10.00;99.90;;;;;;6277184;22;20037;-88
2022/01/29 11:15:11;;;;;;;7.07;4.25;;;9.90;99.90;;;;;;6274865;22;20436;-87
2022/01/29 11:17:37;;;;;;;7.00;4.78;;;9.90;99.90;;;;;;6275194;22;20506;-94
2022/01/29 11:20:04;;;;;;;10.07;5.07;;;9.90;99.90;;;;;;6275526;22;20000;-94
2022/01/29 11:22:40;;;;;;;5.00;3.72;;;9.90;99.90;;;;;;6276204;22;20071;-87
2022/01/29 11:25:11;;;;;;;7.07;4.60;;;10.00;99.90;;;;;;6278457;22;20386;-93
2022/01/29 11:27:37;;;;;;;5.95;4.65;;;10.00;99.90;;;;;;6276409;22;20032;-88
2022/01/29 11:30:13;;;;;;;6.80;4.03;;;10.00;99.90;;;;;;6271323;22;19999;-88
2022/01/29 11:32:47;;;;;;;5.20;3.60;;;10.10;99.90;;;;;;6275673;22;20003;-88
2022/01/29 11:35:14;;;;;;;7.85;3.40;;;10.00;99.90;;;;;;6277689;22;20020;-87
2022/01/29 11:37:48;;;;;;;7.15;3.90;;;10.10;99.90;;;;;;6275970;22;20037;-89
2022/01/29 11:40:45;;;;;;;4.60;3.60;;;10.20;99.90;;;;;;6275030;22;20393;-88
2022/01/29 11:43:22;;;;;;;4.57;2.88;;;10.20;99.90;;;;;;6281580;22;20011;-93
2022/01/29 11:45:54;;;;;;;5.97;3.55;;;10.10;99.90;;;;;;6280811;22;20000;-95
2022/01/29 11:48:22;;;;;;;3.40;3.10;;;10.20;99.90;;;;;;6279944;22;20070;-93
2022/01/29 11:50:49;;;;;;;4.97;3.53;;;10.10;99.90;;;;;;6277385;22;20000;-91
2022/01/29 11:53:18;;;;;;;4.35;3.47;;;10.00;99.90;;;;;;6278270;22;20530;-90
2022/01/29 11:55:46;;;;;;;4.93;3.70;;;10.10;99.90;;;;;;6279256;22;20593;-88
2022/01/29 11:58:20;;;;;;;4.45;3.20;;;10.20;99.90;;;;;;6278807;22;20138;-88
2022/01/29 12:00:49;;;;;;;3.28;2.60;;;10.20;99.90;;;;;;6274269;22;20004;-88
2022/01/29 12:03:47;;;;;;;4.00;2.78;;;10.20;99.90;;;;;;6277467;22;20405;-88
2022/01/29 12:09:07;;;;;;;7.25;2.90;;;10.20;99.90;;;;;;6275118;22;19921;-87
2022/01/29 12:11:39;;;;;;;4.15;3.10;;;10.20;99.90;;;;;;6275397;22;20004;-88
2022/01/29 12:14:13;;;;;;;3.38;2.70;;;10.20;99.90;;;;;;6272222;22;20731;-93
2022/01/29 12:16:54;;;;;;;4.25;2.95;;;10.10;99.90;;;;;;6272421;22;20352;-93
2022/01/29 12:19:43;;;;;;;5.35;3.20;;;10.10;99.90;;;;;;6278419;22;20004;-93
2022/01/29 12:22:20;;;;;;;3.80;2.85;;;10.10;99.90;;;;;;6278576;22;20003;-88
2022/01/29 12:24:51;;;;;;;3.25;2.63;;;10.10;99.90;;;;;;6273878;22;20387;-89
2022/01/29 12:27:17;;;;;;;4.78;2.83;;;10.10;99.90;;;;;;6272243;22;20000;-89
2022/01/29 12:29:43;;;;;;;5.22;2.60;;;10.10;99.90;;;;;;6273048;22;20008;-85
2022/01/29 12:32:13;;;;;;;3.50;2.60;;;10.10;99.90;;;;;;6274334;22;20007;-92
2022/01/29 12:34:39;;;;;;;5.40;3.03;;;10.10;99.90;;;;;;6274240;22;20010;-91
2022/01/29 12:37:20;;;;;;;8.90;4.43;;;10.10;99.90;;;;;;6276102;22;20015;-90
2022/01/29 12:39:49;;;;;;;12.23;5.55;;;10.20;99.90;;;;;;6278541;22;20004;-93
2022/01/29 12:44:58;;;;;;;8.57;4.80;;;10.20;99.90;;;;;;6278255;22;20008;-91
2022/01/29 12:47:29;;;;;;;5.82;4.22;;;10.30;99.90;;;;;;6275970;22;20436;-90
2022/01/29 12:49:56;;;;;;;10.45;5.60;;;;;;;;;;6275753;22;20079;-90
2022/01/29 12:52:22;;;;;;;8.75;5.65;;;10.30;99.90;;;;;;6275499;22;20023;-90
2022/01/29 12:55:05;;;;;;;9.25;4.25;;;10.30;99.90;;;;;;6275892;22;20000;-90
2022/01/29 12:57:51;;;;;;;9.50;5.50;;;10.30;99.90;;;;;;6279725;22;20046;-89
2022/01/29 13:00:19;;;;;;;10.95;6.85;;;10.30;99.90;;;;;;6277125;22;20003;-91
2022/01/29 13:02:47;;;;;;;10.45;5.88;;;10.30;99.90;;;;;;6279307;22;20452;-93
2022/01/29 13:05:13;;;;;;;12.65;6.50;;;;;;;;;;6280666;22;20014;-90
2022/01/29 13:07:40;;;;;;;17.50;8.73;;;10.30;99.90;;;;;;6307126;22;20027;-90
2022/01/29 13:10:08;;;;;;;17.00;9.00;;;10.30;99.90;;;;;;6278830;22;19999;-91
2022/01/29 13:12:38;;;;;;;;;;;10.30;99.90;;;;;;6280365;22;20082;-89
2022/01/29 13:15:05;;;;;;;15.00;8.02;;;10.30;99.90;;;;;;6277943;22;19906;-91
2022/01/29 13:17:30;;;;;;;20.77;7.30;;;10.30;99.90;;;;;;6306098;22;20081;-91
2022/01/29 13:19:56;;;;;;;12.18;7.35;;;10.40;99.90;;;;;;6279662;22;20000;-89
2022/01/29 13:22:26;;;;;;;9.13;5.35;;;10.30;99.90;;;;;;6278580;22;20011;-91
2022/01/29 13:25:02;;;;;;;12.82;7.05;;;10.40;99.90;;;;;;6278029;22;20011;-91
2022/01/29 13:27:36;;;;;;;6.50;4.85;;;10.50;99.90;;;;;;6277760;22;20000;-89
2022/01/29 13:30:11;;;;;;;13.27;7.30;;;;;;;;;;6279112;22;20007;-90
2022/01/29 13:32:38;;;;;;;19.90;10.18;;;10.60;99.90;;;;;;6304571;22;20033;-90
2022/01/29 13:35:23;;;;;;;11.67;7.20;;;10.50;99.90;;;;;;6277743;22;20007;-93
2022/01/29 13:37:56;;;;;;;26.58;12.88;;;10.60;99.90;;;;;;6281873;22;20003;-90
2022/01/29 13:40:32;;;;;;;10.20;6.50;;;10.50;99.90;;;;;;6280699;22;20003;-91
2022/01/29 13:43:01;;;;;;;21.70;11.43;;;10.60;99.90;;;;;;6279204;22;20007;-89
2022/01/29 13:45:29;;;;;;;25.40;13.32;;;10.50;99.90;;;;;;6277797;22;20086;-91
2022/01/29 13:47:58;;;;;;;;;;;10.50;99.90;;;;;;6280457;22;20004;-91
2022/01/29 13:50:27;;;;;;;12.43;6.70;;;10.50;99.90;;;;;;6278220;22;19906;-91
2022/01/29 13:53:16;;;;;;;10.75;5.78;;;10.40;99.90;;;;;;6277455;22;20027;-91
2022/01/29 13:56:08;;;;;;;26.10;13.68;;;10.50;99.90;;;;;;6280924;22;20171;-91
2022/01/29 13:58:50;;;;;;;16.45;8.98;;;10.50;99.90;;;;;;6277915;22;20014;-91
2022/01/29 14:01:32;;;;;;;19.67;11.73;;;10.50;99.90;;;;;;6278543;22;20443;-91
2022/01/29 14:03:58;;;;;;;14.48;9.27;;;;;;;;;;6277622;22;20031;-90
2022/01/29 14:06:45;;;;;;;16.45;9.13;;;10.50;99.90;;;;;;6303792;22;20015;-91
2022/01/29 14:09:47;;;;;;;23.30;13.53;;;10.50;99.90;;;;;;6279528;22;20003;-89
2022/01/29 14:12:25;;;;;;;11.88;6.57;;;10.50;99.90;;;;;;6279248;22;20274;-91
2022/01/29 14:15:20;;;;;;;9.88;5.50;;;10.50;99.90;;;;;;6283242;22;20014;-90
2022/01/29 14:17:47;;;;;;;12.32;6.25;;;10.50;99.90;;;;;;6289858;22;20037;-92
2022/01/29 14:20:19;;;;;;;8.40;6.43;;;10.50;99.90;;;;;;6286042;22;20010;-93
2022/01/29 14:22:47;;;;;;;15.20;9.25;;;10.50;99.90;;;;;;6315149;22;20010;-92
2022/01/29 14:25:21;;;;;;;10.07;6.13;;;10.40;99.90;;;;;;6286894;22;20003;-95
2022/01/29 14:27:52;;;;;;;10.35;6.10;;;10.40;99.90;;;;;;6297827;22;19999;-93
2022/01/29 14:30:18;;;;;;;14.70;8.40;;;10.40;99.90;;;;;;6293035;22;20007;-93
2022/01/29 14:32:44;;;;;;;9.63;6.22;;;;;;;;;;6290515;22;20387;-91
2022/01/29 14:35:12;;;;;;;6.80;4.53;;;10.50;99.90;;;;;;6311896;22;20444;-94
2022/01/29 14:37:48;;;;;;;12.73;5.10;;;10.50;99.90;;;;;;6309240;22;20060;-94
2022/01/29 14:40:15;;;;;;;5.28;4.47;;;10.40;99.90;;;;;;6290323;22;19998;-93